CST,Max TemperatureF,Mean TemperatureF,Min TemperatureF,Max Dew PointF,MeanDew PointF,Min DewpointF,Max Humidity, Mean Humidity, Min Humidity, Max Sea Level PressureIn, Mean Sea Level PressureIn, Min Sea Level PressureIn, Max VisibilityMiles, Mean VisibilityMiles, Min VisibilityMiles, Max Wind SpeedMPH, Mean Wind SpeedMPH, Max Gust SpeedMPH,PrecipitationIn, CloudCover, Events, WindDirDegrees
2013-1-1,21,5,-11,19,6,-15,100,91,78,30.25,30.14,29.98,10,10,7,7,2,,0.00,6,,217
2013-1-2,26,18,10,25,17,10,100,94,79,30.10,29.97,29.91,10,7,2,18,4,23,0.00,7,Snow,262
2013-1-3,15,9,3,14,7,0,100,87,79,30.27,30.18,30.04,10,10,10,16,9,22,0.00,3,,273
2013-1-4,28,18,8,18,15,7,100,84,64,30.10,30.05,29.99,10,10,7,10,6,,0.00,0,,255
2013-1-5,24,15,6,18,11,5,100,90,69,30.05,29.95,29.85,10,10,7,13,3,18,0.00,0,,293
2013-1-6,21,14,8,18,12,3,100,94,79,30.21,30.12,29.89,10,9,4,12,7,18,0.00,4,,260
2013-1-7,35,28,21,27,23,18,93,83,70,29.95,29.89,29.84,10,10,10,8,5,,0.00,0,,227
2013-1-8,33,21,12,28,23,12,100,93,81,29.95,29.84,29.70,10,9,3,16,4,,0.00,1,,184
2013-1-9,35,28,21,30,24,19,93,80,69,30.33,30.16,29.90,10,10,7,20,12,32,0.00,0,Snow,244
2013-1-10,39,34,28,36,29,25,100,81,60,30.22,30.01,29.68,10,8,1,18,7,25,0.00,3,Rain,153
2013-1-11,37,35,30,37,36,30,100,100,100,29.67,29.47,29.34,10,2,0,10,6,16,0.00,8,Fog-Rain-Snow,159
2013-1-12,28,14,1,28,6,-2,100,84,72,30.06,29.83,29.38,10,8,1,21,14,32,0.00,5,Snow,281
2013-1-13,6,3,0,3,-1,-6,92,81,72,30.21,30.12,30.04,10,10,10,12,8,,0.00,2,,294
2013-1-14,10,5,0,7,2,-4,92,85,67,30.38,30.30,30.22,10,10,10,7,4,,0.00,2,,235
2013-1-15,26,14,3,19,11,1,100,83,68,30.22,30.07,29.77,10,10,10,8,3,,0.00,1,,205
2013-1-16,35,19,3,34,19,-2,100,81,57,30.24,29.87,29.63,10,9,2,16,9,21,0.00,5,Snow,288
2013-1-17,19,10,0,10,2,-8,79,68,52,30.37,30.33,30.23,10,10,7,10,5,,0.00,5,Snow,263
2013-1-18,37,27,17,30,24,10,100,84,70,30.21,29.85,29.72,10,10,7,14,7,16,0.00,1,Snow,203
2013-1-19,39,20,0,32,16,-8,100,82,57,30.26,29.89,29.68,10,10,7,36,9,46,0.00,3,,292
2013-1-20,6,0,-5,1,-7,-15,79,70,61,30.39,30.31,30.25,10,10,4,17,11,25,0.00,1,,300
2013-1-21,-5,-8,-11,-15,-17,-18,71,68,65,30.31,30.30,30.28,10,10,10,17,13,24,0.00,0,,303
2013-1-22,5,-1,-7,-2,-8,-17,78,70,65,30.36,30.27,30.20,10,10,10,6,2,,0.00,4,,247
2013-1-23,12,2,-7,7,-3,-17,92,72,55,30.59,30.29,30.12,10,10,7,25,6,37,0.00,3,Snow,319
2013-1-24,14,4,-7,3,-9,-17,72,63,53,30.63,30.42,30.10,10,10,10,15,8,21,0.00,2,,119
2013-1-25,19,10,0,12,2,-8,79,71,62,30.29,30.09,29.93,10,10,5,21,10,33,0.00,3,Snow,283
2013-1-26,23,9,-5,14,2,-8,92,73,63,30.29,30.20,30.04,10,10,10,14,5,,0.00,1,,126
2013-1-27,33,26,19,32,24,12,100,84,64,30.04,29.88,29.78,10,7,1,13,8,18,0.00,6,Snow,124
2013-1-28,35,32,30,36,33,30,100,100,100,29.86,29.79,29.62,2,1,0,14,2,,0.00,8,Fog,139
2013-1-29,33,28,24,34,30,21,100,94,86,29.78,29.65,29.53,10,7,2,21,7,26,0.00,7,,332
2013-1-30,24,14,3,21,10,0,93,84,73,29.78,29.73,29.70,10,10,3,24,16,30,0.00,7,Snow,318
2013-1-31,3,-3,-9,0,-10,-17,85,74,66,30.26,30.04,29.79,10,8,3,22,16,32,0.00,4,,301